Sabadell Airport

Jump to: basic info | weather | runways | comments

Related pages: nearby airports | nearby navaids | notams | map

Basic information (top)

Codes: QSA LELL
Location: lon 41.520901, lat 2.105080, elev 485 ft / 148 m msl
Status: small_airport

Weather (top)

Current conditions (rec'd 2014/04/19 11:30Z):

LELL 191130Z 14007KT 080V190 9999 SCT030 BKN040 17/09 Q1006

Airport forecast (rec'd 2014/04/19 09:00Z):

TAF LELL 190800Z 1909/2009 VRB03KT 9999 FEW020 TX20/1913Z TN09/2006Z 
      TEMPO 1909/2009 BKN018 
      BECMG 1909/1912 14010KT 
      BECMG 1918/1921 04005KT PROB40 
      TEMPO 1920/2009 4000 RA BKN018

Runways (top)

13/31: 2,953 ft (900 m) — surface unknown — not lighted

Latest comments (top)

Great service, easy in & out: Here our expenses for 3 days in ... [read]

great service, great people: So going on a helicopter through spain ... [read]

More... (top)

See also NOTAMs and nearby airports and navaids, or visit the Sabadell Airport page at the main OurAirports website..